createdAt,value
2022-10-07T00:00:52.299Z,14.60
2022-10-07T00:03:20.464Z,14.70
2022-10-07T00:05:47.256Z,14.80
2022-10-07T00:08:14.162Z,14.70
2022-10-07T00:10:43.169Z,14.70
2022-10-07T00:13:12.129Z,14.70
2022-10-07T00:15:39.319Z,14.80
2022-10-07T00:18:06.257Z,14.80
2022-10-07T00:20:38.822Z,14.90
2022-10-07T00:23:09.359Z,14.90
2022-10-07T00:25:37.694Z,14.90
2022-10-07T00:28:05.350Z,14.90
2022-10-07T00:30:32.517Z,14.90
2022-10-07T00:32:59.514Z,14.80
2022-10-07T00:35:26.210Z,14.90
2022-10-07T00:37:53.315Z,14.90
2022-10-07T00:40:20.061Z,14.80
2022-10-07T00:42:46.984Z,14.80
2022-10-07T00:45:15.703Z,14.80
2022-10-07T00:47:46.819Z,14.80
2022-10-07T00:50:21.754Z,14.80
2022-10-07T00:52:53.895Z,14.70
2022-10-07T00:55:24.518Z,14.70
2022-10-07T00:57:55.224Z,14.60
2022-10-07T01:00:24.184Z,14.60
2022-10-07T01:02:51.560Z,14.60
2022-10-07T01:05:19.017Z,14.60
2022-10-07T01:07:48.499Z,14.70
2022-10-07T01:10:20.084Z,14.80
2022-10-07T01:12:59.357Z,14.80
2022-10-07T01:15:31.559Z,14.70
2022-10-07T01:18:08.496Z,14.80
2022-10-07T01:20:58.611Z,14.80
2022-10-07T01:23:56.327Z,14.80
2022-10-07T01:26:47.455Z,14.80
2022-10-07T01:29:15.419Z,14.70
2022-10-07T01:32:13.471Z,14.70
2022-10-07T01:34:43.040Z,14.60
2022-10-07T01:37:15.039Z,14.60
2022-10-07T01:39:47.668Z,14.70
2022-10-07T01:42:15.850Z,14.70
2022-10-07T01:44:45.807Z,14.70
2022-10-07T01:47:12.582Z,14.60
2022-10-07T01:49:39.371Z,14.60
2022-10-07T01:52:18.440Z,14.50
2022-10-07T01:55:01.398Z,14.50
2022-10-07T01:57:43.742Z,14.40
2022-10-07T02:00:12.557Z,14.30
2022-10-07T02:03:06.757Z,14.30
2022-10-07T02:05:36.739Z,14.30
2022-10-07T02:08:45.645Z,14.30
2022-10-07T02:11:19.343Z,14.30
2022-10-07T02:13:56.027Z,14.10
2022-10-07T02:16:48.317Z,13.90
2022-10-07T02:19:28.512Z,13.80
2022-10-07T02:21:58.181Z,13.70
2022-10-07T02:24:29.529Z,13.70
2022-10-07T02:27:01.483Z,13.70
2022-10-07T02:29:33.142Z,13.70
2022-10-07T02:32:02.855Z,13.70
2022-10-07T02:34:31.290Z,13.60
2022-10-07T02:37:04.524Z,13.70
2022-10-07T02:39:31.396Z,13.70
2022-10-07T02:42:34.381Z,13.80
2022-10-07T02:45:04.099Z,13.80
2022-10-07T02:47:48.065Z,13.90
2022-10-07T02:50:22.406Z,13.90
2022-10-07T02:52:52.720Z,14.00
2022-10-07T02:55:23.785Z,14.00
2022-10-07T02:57:54.764Z,14.00
2022-10-07T03:00:22.126Z,13.90
2022-10-07T03:02:51.097Z,14.00
2022-10-07T03:05:22.510Z,14.00
2022-10-07T03:07:53.975Z,14.00
2022-10-07T03:10:21.206Z,14.00
2022-10-07T03:12:48.249Z,14.00
2022-10-07T03:15:15.014Z,14.00
2022-10-07T03:17:42.125Z,14.00
2022-10-07T03:20:09.931Z,14.00
2022-10-07T03:22:37.023Z,13.90
2022-10-07T03:25:04.209Z,13.90
2022-10-07T03:27:31.005Z,13.80
2022-10-07T03:29:58.594Z,13.90
2022-10-07T03:32:29.755Z,13.90
2022-10-07T03:34:56.573Z,13.90
2022-10-07T03:37:24.199Z,13.80
2022-10-07T03:39:52.722Z,13.80
2022-10-07T03:42:20.059Z,13.70
2022-10-07T03:44:49.559Z,13.60
2022-10-07T03:47:17.547Z,13.50
2022-10-07T03:49:45.198Z,13.50
2022-10-07T03:52:12.016Z,13.50
2022-10-07T03:54:40.287Z,13.60
2022-10-07T03:57:27.049Z,13.70
2022-10-07T03:59:54.403Z,13.70
2022-10-07T04:02:25.130Z,13.70
2022-10-07T04:04:54.923Z,13.70
2022-10-07T04:07:22.619Z,13.80
2022-10-07T04:09:49.420Z,13.80
2022-10-07T04:12:16.637Z,13.70
2022-10-07T04:14:43.493Z,13.70
2022-10-07T04:17:10.245Z,13.80
2022-10-07T04:19:37.153Z,13.70
2022-10-07T04:22:08.880Z,13.80
2022-10-07T04:24:36.471Z,13.80
2022-10-07T04:27:06.427Z,13.70
2022-10-07T04:29:38.126Z,13.50
2022-10-07T04:32:05.825Z,13.50
2022-10-07T04:34:32.682Z,13.50
2022-10-07T04:37:00.994Z,13.50
2022-10-07T04:39:48.906Z,13.60
2022-10-07T04:42:34.643Z,13.60
2022-10-07T04:45:01.556Z,13.70
2022-10-07T04:47:28.305Z,13.60
2022-10-07T04:49:55.197Z,13.60
2022-10-07T04:52:22.102Z,13.60
2022-10-07T04:54:48.880Z,13.60
2022-10-07T04:57:15.731Z,13.60
2022-10-07T04:59:43.189Z,13.70
2022-10-07T05:02:10.380Z,13.80
2022-10-07T05:04:37.309Z,13.70
2022-10-07T05:07:04.687Z,13.70
2022-10-07T05:09:31.795Z,13.70
2022-10-07T05:11:58.556Z,13.70
2022-10-07T05:14:25.305Z,13.60
2022-10-07T05:16:52.422Z,13.60
2022-10-07T05:19:20.171Z,13.70
2022-10-07T05:21:47.055Z,13.70
2022-10-07T05:24:13.801Z,13.70
2022-10-07T05:26:41.041Z,13.70
2022-10-07T05:29:07.794Z,13.70
2022-10-07T05:31:35.610Z,13.70
2022-10-07T05:34:02.984Z,13.80
2022-10-07T05:36:30.492Z,13.80
2022-10-07T05:39:01.327Z,13.80
2022-10-07T05:41:29.015Z,13.80
2022-10-07T05:43:55.839Z,13.90
2022-10-07T05:46:23.904Z,13.90
2022-10-07T05:48:52.388Z,13.90
2022-10-07T05:51:21.353Z,14.00
2022-10-07T05:53:48.508Z,14.00
2022-10-07T05:56:18.817Z,14.00
2022-10-07T05:58:46.198Z,14.10
2022-10-07T06:01:16.587Z,14.10
2022-10-07T06:03:44.681Z,14.20
2022-10-07T06:06:11.443Z,14.40
2022-10-07T06:08:38.319Z,14.40
2022-10-07T06:11:24.771Z,14.40
2022-10-07T06:13:53.395Z,14.50
2022-10-07T06:16:21.186Z,14.60
2022-10-07T06:18:50.411Z,14.80
2022-10-07T06:21:17.287Z,14.80
2022-10-07T06:23:44.085Z,15.00
2022-10-07T06:26:11.936Z,15.30
2022-10-07T06:28:41.105Z,15.40
2022-10-07T06:31:10.630Z,15.50
2022-10-07T06:33:37.580Z,15.40
2022-10-07T06:36:06.111Z,15.50
2022-10-07T06:38:33.280Z,15.70
2022-10-07T06:41:03.860Z,15.70
2022-10-07T06:43:32.735Z,15.70
2022-10-07T06:46:04.125Z,15.80
2022-10-07T06:48:32.953Z,15.70
2022-10-07T06:51:03.326Z,15.70
2022-10-07T06:53:30.918Z,15.70
2022-10-07T06:56:02.432Z,15.80
2022-10-07T06:58:29.758Z,16.00
2022-10-07T07:00:58.910Z,16.20
2022-10-07T07:03:26.072Z,16.40
2022-10-07T07:05:54.640Z,16.40
2022-10-07T07:08:24.292Z,16.40
2022-10-07T07:10:51.215Z,16.40
2022-10-07T07:13:18.217Z,16.60
2022-10-07T07:15:54.689Z,16.80
2022-10-07T07:18:22.060Z,16.70
2022-10-07T07:20:48.863Z,16.70
2022-10-07T07:23:15.576Z,16.80
2022-10-07T07:25:45.864Z,16.90
2022-10-07T07:28:15.354Z,16.90
2022-10-07T07:30:42.686Z,17.00
2022-10-07T07:33:09.852Z,17.00
2022-10-07T07:35:41.191Z,17.10
2022-10-07T07:38:08.640Z,17.40
2022-10-07T07:40:39.518Z,17.50
2022-10-07T07:43:07.280Z,17.60
2022-10-07T07:45:37.341Z,17.80
2022-10-07T07:48:04.781Z,17.90
2022-10-07T07:50:32.088Z,18.00
2022-10-07T07:53:01.937Z,18.00
2022-10-07T07:55:29.034Z,17.90
2022-10-07T07:57:56.676Z,18.00
2022-10-07T08:00:23.962Z,18.30
2022-10-07T08:02:52.870Z,18.40
2022-10-07T08:05:23.749Z,18.50
2022-10-07T08:07:51.860Z,18.60
2022-10-07T08:10:18.775Z,18.60
2022-10-07T08:12:45.517Z,18.70
2022-10-07T08:15:12.802Z,18.90
2022-10-07T08:17:40.425Z,19.00
2022-10-07T08:20:10.586Z,19.00
2022-10-07T08:22:37.718Z,19.20
2022-10-07T08:25:04.800Z,19.30
2022-10-07T08:27:34.884Z,19.50
2022-10-07T08:30:02.334Z,19.70
2022-10-07T08:32:31.036Z,19.80
2022-10-07T08:34:57.700Z,19.90
2022-10-07T08:37:26.342Z,20.00
2022-10-07T08:39:53.469Z,20.20
2022-10-07T08:42:33.723Z,20.30
2022-10-07T08:45:01.227Z,20.60
2022-10-07T08:47:38.585Z,20.90
2022-10-07T08:50:24.700Z,21.10
2022-10-07T08:53:01.662Z,21.20
2022-10-07T08:55:42.013Z,21.30
2022-10-07T08:58:45.955Z,21.50
2022-10-07T09:01:22.480Z,21.60
2022-10-07T09:03:58.128Z,21.80
2022-10-07T09:06:35.982Z,21.70
2022-10-07T09:09:12.811Z,21.90
2022-10-07T09:11:43.675Z,22.10
2022-10-07T09:14:30.738Z,22.40
2022-10-07T09:17:03.773Z,22.70
2022-10-07T09:19:33.965Z,23.20
2022-10-07T09:22:14.055Z,23.50
2022-10-07T09:24:40.855Z,23.80
2022-10-07T09:27:14.138Z,24.00
2022-10-07T09:29:40.903Z,24.10
2022-10-07T09:32:14.248Z,24.30
2022-10-07T09:34:41.368Z,24.50
2022-10-07T09:37:21.684Z,24.70
2022-10-07T09:39:51.473Z,25.10
2022-10-07T09:42:24.040Z,25.40
2022-10-07T09:44:57.428Z,25.60
2022-10-07T09:47:27.433Z,25.80
2022-10-07T09:49:56.959Z,26.10
2022-10-07T09:52:25.266Z,26.00
2022-10-07T09:54:55.197Z,25.90
2022-10-07T09:57:34.357Z,26.10
2022-10-07T10:00:13.263Z,26.10
2022-10-07T10:02:45.169Z,26.30
2022-10-07T10:05:23.905Z,26.60
2022-10-07T10:07:55.880Z,27.10
2022-10-07T10:10:34.535Z,27.60
2022-10-07T10:13:03.719Z,28.10
2022-10-07T10:15:41.751Z,28.60
2022-10-07T10:18:31.604Z,28.80
2022-10-07T10:21:29.364Z,29.00
2022-10-07T10:24:06.044Z,29.60
2022-10-07T10:26:55.941Z,30.50
2022-10-07T10:29:40.408Z,32.10
2022-10-07T10:32:22.708Z,33.80
2022-10-07T10:35:16.401Z,34.80
2022-10-07T10:37:58.275Z,35.40
2022-10-07T10:40:44.124Z,36.10
2022-10-07T10:43:31.306Z,35.30
2022-10-07T10:46:13.565Z,33.80
2022-10-07T10:49:10.882Z,33.10
2022-10-07T10:51:49.596Z,33.60
2022-10-07T10:54:33.871Z,34.50
2022-10-07T10:57:32.155Z,34.40
2022-10-07T11:00:11.214Z,33.40
2022-10-07T11:02:37.977Z,33.40
2022-10-07T11:05:06.556Z,33.90
2022-10-07T11:07:42.104Z,34.40
2022-10-07T11:10:25.575Z,35.30
2022-10-07T11:13:06.342Z,35.80
2022-10-07T11:15:39.265Z,35.60
2022-10-07T11:18:12.107Z,34.80
2022-10-07T11:20:47.986Z,34.00
2022-10-07T11:23:25.354Z,32.60
2022-10-07T11:26:02.604Z,32.10
2022-10-07T11:28:33.190Z,32.30
2022-10-07T11:31:17.441Z,32.50
2022-10-07T11:33:52.443Z,33.40
2022-10-07T11:36:44.524Z,33.30
2022-10-07T11:39:11.311Z,34.00
2022-10-07T11:41:53.234Z,34.60
2022-10-07T11:44:30.863Z,35.20
2022-10-07T11:47:03.004Z,35.10
2022-10-07T11:49:37.653Z,35.90
2022-10-07T11:52:07.637Z,36.00
2022-10-07T11:54:45.784Z,36.20
2022-10-07T11:57:22.563Z,37.40
2022-10-07T11:59:58.259Z,38.30
2022-10-07T12:02:28.107Z,39.20
2022-10-07T12:04:55.959Z,39.90
2022-10-07T12:07:37.745Z,40.50
2022-10-07T12:10:21.924Z,40.80
2022-10-07T12:13:00.183Z,40.70
2022-10-07T12:15:36.735Z,40.80
2022-10-07T12:18:04.216Z,41.20
2022-10-07T12:20:37.133Z,41.60
2022-10-07T12:23:36.919Z,42.00
2022-10-07T12:26:25.448Z,42.10
2022-10-07T12:28:52.541Z,42.30
2022-10-07T12:31:22.817Z,42.10
2022-10-07T12:34:05.748Z,42.30
2022-10-07T12:36:32.786Z,42.70
2022-10-07T12:38:59.488Z,43.20
2022-10-07T12:41:45.327Z,43.70
2022-10-07T12:44:15.044Z,44.10
2022-10-07T12:46:50.969Z,44.00
2022-10-07T12:49:26.492Z,44.30
2022-10-07T12:51:54.683Z,43.40
2022-10-07T12:54:28.073Z,43.50
2022-10-07T12:56:55.023Z,43.40
2022-10-07T12:59:59.644Z,43.70
2022-10-07T13:03:03.657Z,43.10
2022-10-07T13:05:53.581Z,42.80
2022-10-07T13:08:42.095Z,42.90
2022-10-07T13:11:42.202Z,42.70
2022-10-07T13:14:41.598Z,42.50
2022-10-07T13:17:25.488Z,42.90
2022-10-07T13:20:01.516Z,43.70
2022-10-07T13:22:28.781Z,43.60
2022-10-07T13:24:57.865Z,43.80
2022-10-07T13:27:30.302Z,43.50
2022-10-07T13:29:59.665Z,43.40
2022-10-07T13:32:30.276Z,43.40
2022-10-07T13:35:29.871Z,42.70
2022-10-07T13:37:57.157Z,41.60
2022-10-07T13:40:35.247Z,40.50
2022-10-07T13:43:04.874Z,39.90
2022-10-07T13:45:33.304Z,39.60
2022-10-07T13:48:00.440Z,39.50
2022-10-07T13:50:30.821Z,39.70
2022-10-07T13:52:59.043Z,39.90
2022-10-07T13:55:26.171Z,40.10
2022-10-07T13:57:57.198Z,39.50
2022-10-07T14:00:25.636Z,39.70
2022-10-07T14:02:53.373Z,40.10
2022-10-07T14:05:22.083Z,39.90
2022-10-07T14:07:54.062Z,39.60
2022-10-07T14:10:23.711Z,39.70
2022-10-07T14:12:54.973Z,39.40
2022-10-07T14:15:24.536Z,39.10
2022-10-07T14:17:54.659Z,37.50
2022-10-07T14:20:32.536Z,37.30
2022-10-07T14:23:05.876Z,37.00
2022-10-07T14:25:53.048Z,36.60
2022-10-07T14:28:19.740Z,35.80
2022-10-07T14:31:26.360Z,35.20
2022-10-07T14:34:34.446Z,34.90
2022-10-07T14:37:12.362Z,34.30
2022-10-07T14:39:45.222Z,34.10
2022-10-07T14:42:36.353Z,33.30
2022-10-07T14:45:08.319Z,32.60
2022-10-07T14:47:35.075Z,32.10
2022-10-07T14:50:01.834Z,31.50
2022-10-07T14:52:47.083Z,30.80
2022-10-07T14:55:25.188Z,30.10
2022-10-07T14:57:52.858Z,29.80
2022-10-07T15:00:25.115Z,29.30
2022-10-07T15:02:53.217Z,29.10
2022-10-07T15:05:20.776Z,28.70
2022-10-07T15:07:48.637Z,28.20
2022-10-07T15:10:25.453Z,27.80
2022-10-07T15:12:53.133Z,27.30
2022-10-07T15:15:19.992Z,27.10
2022-10-07T15:17:47.956Z,26.80
2022-10-07T15:20:15.871Z,26.50
2022-10-07T15:22:43.944Z,26.30
2022-10-07T15:25:15.089Z,26.00
2022-10-07T15:27:42.128Z,25.70
2022-10-07T15:30:09.974Z,25.40
2022-10-07T15:32:36.956Z,25.20
2022-10-07T15:35:03.832Z,25.00
2022-10-07T15:37:32.274Z,24.80
2022-10-07T15:39:59.586Z,24.50
2022-10-07T15:42:26.522Z,24.40
2022-10-07T15:44:54.391Z,24.20
2022-10-07T15:47:21.175Z,24.00
2022-10-07T15:49:49.045Z,23.90
2022-10-07T15:52:16.171Z,23.70
2022-10-07T15:54:43.622Z,23.60
2022-10-07T15:57:10.448Z,23.50
2022-10-07T15:59:37.623Z,23.30
2022-10-07T16:02:05.942Z,23.20
2022-10-07T16:04:32.917Z,23.00
2022-10-07T16:06:59.988Z,22.90
2022-10-07T16:09:27.243Z,22.80
2022-10-07T16:11:54.197Z,22.60
2022-10-07T16:14:20.956Z,22.40
2022-10-07T16:16:47.723Z,22.30
2022-10-07T16:19:14.903Z,22.20
2022-10-07T16:21:43.166Z,22.10
2022-10-07T16:24:18.311Z,22.00
2022-10-07T16:26:45.919Z,21.90
2022-10-07T16:29:37.111Z,21.80
2022-10-07T16:32:04.843Z,21.70
2022-10-07T16:34:31.647Z,21.60
2022-10-07T16:36:59.078Z,21.60
2022-10-07T16:39:26.273Z,21.50
2022-10-07T16:41:53.805Z,21.40
2022-10-07T16:44:21.471Z,21.40
2022-10-07T16:46:49.138Z,21.30
2022-10-07T16:49:18.187Z,21.20
2022-10-07T16:51:46.457Z,21.20
2022-10-07T16:54:16.608Z,21.10
2022-10-07T16:56:48.540Z,21.00
2022-10-07T16:59:23.149Z,21.00
2022-10-07T17:01:52.298Z,20.90
2022-10-07T17:04:19.292Z,20.80
2022-10-07T17:06:46.632Z,20.80
2022-10-07T17:09:14.395Z,20.70
2022-10-07T17:11:41.592Z,20.60
2022-10-07T17:14:09.626Z,20.60
2022-10-07T17:16:39.820Z,20.60
2022-10-07T17:19:07.261Z,20.60
2022-10-07T17:21:36.149Z,20.50
2022-10-07T17:24:04.064Z,20.40
2022-10-07T17:26:31.685Z,20.40
2022-10-07T17:29:04.399Z,20.30
2022-10-07T17:31:32.522Z,20.30
2022-10-07T17:33:59.935Z,20.20
2022-10-07T17:36:27.540Z,20.20
2022-10-07T17:38:54.976Z,20.10
2022-10-07T17:41:29.348Z,20.10
2022-10-07T17:43:58.314Z,20.00
2022-10-07T17:46:28.266Z,20.00
2022-10-07T17:48:57.410Z,19.90
2022-10-07T17:51:28.022Z,19.80
2022-10-07T17:53:56.401Z,19.70
2022-10-07T17:56:23.440Z,19.70
2022-10-07T17:58:50.487Z,19.70
2022-10-07T18:01:23.962Z,19.60
2022-10-07T18:04:13.437Z,19.50
2022-10-07T18:06:43.209Z,19.40
2022-10-07T18:09:14.049Z,19.40
2022-10-07T18:11:59.886Z,19.30
2022-10-07T18:14:47.746Z,19.20
2022-10-07T18:17:18.180Z,19.20
2022-10-07T18:19:45.132Z,19.20
2022-10-07T18:22:12.339Z,19.10
2022-10-07T18:24:39.509Z,19.10
2022-10-07T18:27:06.788Z,19.00
2022-10-07T18:29:38.068Z,18.90
2022-10-07T18:32:06.696Z,18.80
2022-10-07T18:34:33.858Z,18.80
2022-10-07T18:37:01.111Z,18.80
2022-10-07T18:39:29.513Z,18.70
2022-10-07T18:41:57.066Z,18.70
2022-10-07T18:44:23.815Z,18.70
2022-10-07T18:46:50.821Z,18.60
2022-10-07T18:49:17.678Z,18.60
2022-10-07T18:51:46.870Z,18.50
2022-10-07T18:54:13.817Z,18.40
2022-10-07T18:56:41.579Z,18.40
2022-10-07T18:59:13.046Z,18.40
2022-10-07T19:01:40.693Z,18.30
2022-10-07T19:04:08.698Z,18.30
2022-10-07T19:06:39.257Z,18.20
2022-10-07T19:09:08.471Z,18.20
2022-10-07T19:11:35.888Z,18.10
2022-10-07T19:14:03.048Z,18.00
2022-10-07T19:16:36.197Z,18.00
2022-10-07T19:19:06.451Z,17.90
2022-10-07T19:21:34.424Z,17.80
2022-10-07T19:24:02.711Z,17.70
2022-10-07T19:26:33.984Z,17.50
2022-10-07T19:29:01.802Z,17.40
2022-10-07T19:31:32.133Z,17.40
2022-10-07T19:34:07.572Z,17.40
2022-10-07T19:36:37.879Z,17.50
2022-10-07T19:39:05.640Z,17.50
2022-10-07T19:41:34.619Z,17.50
2022-10-07T19:44:02.263Z,17.40
2022-10-07T19:46:31.724Z,17.40
2022-10-07T19:49:00.542Z,17.30
2022-10-07T19:51:30.232Z,17.30
2022-10-07T19:53:59.647Z,17.20
2022-10-07T19:56:35.975Z,17.20
2022-10-07T19:59:06.220Z,17.10
2022-10-07T20:01:35.960Z,17.10
2022-10-07T20:04:06.318Z,17.10
2022-10-07T20:06:37.669Z,17.10
2022-10-07T20:09:11.015Z,17.10
2022-10-07T20:11:37.778Z,17.10
2022-10-07T20:14:07.653Z,17.00
2022-10-07T20:16:35.142Z,16.90
2022-10-07T20:19:08.133Z,17.00
2022-10-07T20:21:37.426Z,17.00
2022-10-07T20:24:05.412Z,17.00
2022-10-07T20:26:38.456Z,16.90
2022-10-07T20:31:42.747Z,16.90
2022-10-07T20:34:15.013Z,16.80
2022-10-07T20:36:43.186Z,16.80
2022-10-07T20:39:37.580Z,16.70
2022-10-07T20:42:21.278Z,16.50
2022-10-07T20:44:49.901Z,16.50
2022-10-07T20:47:17.927Z,15.30
2022-10-07T20:49:44.887Z,15.10
2022-10-07T20:52:17.174Z,16.40
2022-10-07T20:54:45.099Z,16.20
2022-10-07T20:57:15.343Z,16.20
2022-10-07T20:59:43.400Z,16.30
2022-10-07T21:02:12.015Z,15.30
2022-10-07T21:04:38.998Z,16.10
2022-10-07T21:07:06.536Z,15.90
2022-10-07T21:09:36.611Z,16.00
2022-10-07T21:31:17.369Z,15.80
2022-10-07T21:33:44.959Z,14.40
2022-10-07T21:36:17.224Z,15.30
2022-10-07T21:38:46.000Z,15.60
2022-10-07T21:41:19.237Z,14.50
2022-10-07T21:43:51.561Z,15.10
2022-10-07T21:46:20.794Z,15.40
2022-10-07T21:48:48.333Z,14.20
2022-10-07T21:51:16.158Z,14.30
2022-10-07T21:53:45.784Z,14.10
2022-10-07T21:56:13.812Z,14.30
2022-10-07T21:58:40.950Z,13.90
2022-10-07T22:01:19.099Z,16.60
2022-10-07T22:03:46.521Z,15.40
2022-10-07T22:06:16.972Z,14.30
2022-10-07T22:08:46.247Z,15.10
2022-10-07T22:11:16.218Z,14.10
2022-10-07T22:13:45.746Z,14.60
2022-10-07T22:16:15.366Z,14.50
2022-10-07T22:18:45.287Z,14.50
2022-10-07T22:21:16.813Z,14.20
2022-10-07T22:23:44.419Z,13.90
2022-10-07T22:26:14.563Z,13.50
2022-10-07T22:28:41.991Z,14.50
2022-10-07T22:31:10.953Z,13.70
2022-10-07T22:33:41.471Z,14.80
2022-10-07T22:36:13.623Z,14.80
2022-10-07T22:38:43.900Z,14.70
2022-10-07T22:41:14.207Z,14.70
2022-10-07T22:43:45.481Z,14.10
2022-10-07T22:46:17.440Z,14.80
2022-10-07T22:48:44.695Z,14.90
2022-10-07T22:51:14.216Z,13.60
2022-10-07T22:53:48.972Z,13.70
2022-10-07T22:56:18.041Z,14.80
2022-10-07T22:58:51.715Z,13.30
2022-10-07T23:01:24.290Z,13.30
2022-10-07T23:03:53.093Z,14.70
2022-10-07T23:06:20.692Z,14.70
2022-10-07T23:08:48.700Z,13.50
2022-10-07T23:11:18.799Z,14.60
2022-10-07T23:13:46.359Z,13.20
2022-10-07T23:16:17.202Z,13.20
2022-10-07T23:18:46.239Z,13.00
2022-10-07T23:21:16.532Z,13.70
2022-10-07T23:23:46.589Z,14.40
2022-10-07T23:26:21.456Z,14.40
2022-10-07T23:28:53.829Z,13.90
2022-10-07T23:31:23.224Z,12.70
2022-10-07T23:33:52.240Z,14.40
2022-10-07T23:36:21.179Z,13.20
2022-10-07T23:55:20.232Z,14.20
